Terminal Aerodrome Forecast
Issued by NWS

Home | Current Version | Previous Version | Text Only | Print | Product List | Glossary On
Versions: 1 2 3 4 5 6 7 8 9 10 11 12 13 14 15 16
000
FTUS44 KLIX 191746
TAFGPT
TAF
KGPT 191746Z 1918/2018 30004KT P6SM -RA VCTS SCT021CB SCT030 BKN045
     FM191900 23005KT P6SM BKN050
      TEMPO 1919/1923 P6SM -TSRA BKN050CB
     FM200100 20006KT P6SM FEW050 SCT200
     FM201100 27004KT P6SM BKN050 BKN150
     FM201500 30003KT P6SM SKC=

USA.gov is the U.S. government's official web portal to all federal, state and local government web resources and services.